Time;durP1;ratioP1;P1;durP2;ratioP2;P2;SDS_P1;SDS_P2;PMS_P1;PMS_P2;Temp;Humidity;BMP_temperature;BMP_pressure;BME280_temperature;BME280_humidity;BME280_pressure;Samples;Min_cycle;Max_cycle;Signal;HPM_P1;HPM_P2
2023/06/13 00:01:11;;;;;;;6.78;6.28;;;;;;;16.76;92.55;94434.66;5112869;28;20188;-71
2023/06/13 00:03:39;;;;;;;7.15;6.50;;;;;;;16.73;92.24;94431.88;5113209;28;20290;-71
2023/06/13 00:06:08;;;;;;;6.72;6.03;;;;;;;16.72;92.18;94431.06;5113174;28;20227;-71
2023/06/13 00:08:40;;;;;;;6.30;5.70;;;;;;;16.73;92.42;94431.88;5114929;28;20204;-71
2023/06/13 00:11:10;;;;;;;6.40;5.80;;;;;;;16.73;91.93;94423.50;5116796;28;20272;-71
2023/06/13 00:13:39;;;;;;;6.13;5.57;;;;;;;16.75;92.02;94421.94;5118006;28;20191;-71
2023/06/13 00:16:08;;;;;;;6.43;5.90;;;;;;;16.76;92.19;94417.94;5117087;28;20202;-71
2023/06/13 00:18:38;;;;;;;6.60;6.05;;;;;;;16.78;92.89;94415.56;5117033;28;20214;-71
2023/06/13 00:21:09;;;;;;;6.38;5.60;;;;;;;16.78;92.84;94412.00;5116933;28;20221;-72
2023/06/13 00:23:37;;;;;;;7.18;6.50;;;;;;;16.80;93.06;94404.00;5116849;28;20202;-71
2023/06/13 00:26:06;;;;;;;6.30;5.80;;;;;;;16.79;92.57;94405.22;5116456;28;20231;-72
2023/06/13 00:28:38;;;;;;;6.10;5.50;;;;;;;16.77;92.72;94404.81;5116962;28;20188;-72
2023/06/13 00:31:06;;;;;;;6.20;5.60;;;;;;;16.76;92.82;94406.03;5116345;28;20635;-72
2023/06/13 00:33:34;;;;;;;6.82;5.60;;;;;;;16.76;93.16;94403.25;5116767;28;20203;-71
2023/06/13 00:36:02;;;;;;;5.90;5.28;;;;;;;16.76;93.38;94408.81;5117800;28;20184;-71
2023/06/13 00:38:32;;;;;;;5.78;5.20;;;;;;;16.75;93.23;94404.44;5116405;28;20286;-71
2023/06/13 00:41:00;;;;;;;5.97;5.35;;;;;;;16.72;92.85;94414.38;5117322;28;20184;-71
2023/06/13 00:43:32;;;;;;;5.40;4.93;;;;;;;16.72;92.99;94402.44;5117126;28;20650;-71
2023/06/13 00:46:05;;;;;;;6.15;5.55;;;;;;;16.71;92.89;94407.22;5116381;28;20200;-72
2023/06/13 00:48:33;;;;;;;6.18;5.22;;;;;;;16.71;93.74;94398.88;5116506;28;20188;-72
2023/06/13 00:51:02;;;;;;;7.55;5.72;;;;;;;16.71;93.86;94398.09;5116607;28;20223;-72
2023/06/13 00:53:33;;;;;;;7.35;6.70;;;;;;;16.71;93.50;94404.44;5116092;28;20244;-72
2023/06/13 00:56:06;;;;;;;6.70;6.10;;;;;;;16.69;93.17;94404.03;5117100;28;20314;-72
2023/06/13 00:58:39;;;;;;;6.50;5.90;;;;;;;16.68;93.22;94398.91;5116211;28;20516;-71
2023/06/13 01:01:10;;;;;;;7.70;6.35;;;;;;;16.68;93.11;94396.13;5116839;28;20298;-71
2023/06/13 01:03:39;;;;;;;9.48;5.88;;;;;;;16.70;93.62;94404.84;5116249;28;20307;-72
2023/06/13 01:06:09;;;;;;;7.45;6.75;;;;;;;16.70;93.26;94400.06;5116139;28;20199;-72
2023/06/13 01:08:37;;;;;;;7.60;6.43;;;;;;;16.67;92.91;94389.75;5117172;28;20206;-72
2023/06/13 01:11:12;;;;;;;6.53;6.03;;;;;;;16.69;93.68;94398.47;5116939;28;20215;-71
2023/06/13 01:13:48;;;;;;;7.20;6.57;;;;;;;16.69;93.91;94392.13;5116928;28;20198;-71
2023/06/13 01:16:25;;;;;;;7.40;6.70;;;;;;;16.68;93.65;94394.13;5115614;28;20206;-71
2023/06/13 01:18:53;;;;;;;6.88;6.28;;;;;;;16.67;94.00;94394.53;5116709;28;20259;-71
2023/06/13 01:21:24;;;;;;;6.63;6.05;;;;;;;16.67;93.94;94397.31;5114936;28;20236;-72
2023/06/13 01:23:54;;;;;;;6.88;6.18;;;;;;;16.65;93.53;94403.28;5116728;28;20275;-72
2023/06/13 01:26:39;;;;;;;7.03;5.70;;;;;;;16.65;93.30;94394.13;5116377;28;20288;-72
2023/06/13 01:29:08;;;;;;;7.25;5.75;;;;;;;16.61;93.02;94403.31;5116390;28;20248;-71
2023/06/13 01:31:38;;;;;;;7.20;6.57;;;;;;;16.58;92.67;94397.75;5115591;28;20255;-72
2023/06/13 01:34:07;;;;;;;7.38;6.68;;;;;;;16.58;92.56;94408.91;5116585;27;20188;-72
2023/06/13 01:36:35;;;;;;;7.47;6.80;;;;;;;16.59;92.81;94404.91;5116462;28;20195;-71
2023/06/13 01:39:03;;;;;;;9.50;7.50;;;;;;;16.59;92.96;94405.72;5116357;28;20385;-71
2023/06/13 01:41:31;;;;;;;9.43;7.90;;;;;;;16.60;93.47;94398.16;5116265;28;20207;-72
2023/06/13 01:44:01;;;;;;;8.85;8.00;;;;;;;16.61;93.60;94402.50;5115416;28;20191;-71
2023/06/13 01:46:32;;;;;;;8.93;8.05;;;;;;;16.58;93.06;94404.13;5115384;28;20196;-72
2023/06/13 01:49:09;;;;;;;8.43;7.60;;;;;;;16.58;93.20;94404.13;5115531;28;20192;-72
2023/06/13 01:51:52;;;;;;;8.73;7.90;;;;;;;16.57;93.41;94399.75;5115113;28;20219;-72
2023/06/13 01:54:22;;;;;;;7.07;6.57;;;;;;;16.54;93.47;94403.34;5116557;28;20191;-72
2023/06/13 01:56:54;;;;;;;7.80;7.10;;;;;;;16.53;93.26;94400.97;5116098;28;20248;-71
2023/06/13 01:59:28;;;;;;;7.80;6.65;;;;;;;16.53;93.40;94395.41;5114917;28;20207;-71
2023/06/13 02:01:57;;;;;;;7.82;7.15;;;;;;;16.51;93.83;94403.38;5115225;28;20290;-71
2023/06/13 02:04:27;;;;;;;8.18;7.38;;;;;;;16.51;93.98;94403.38;5114884;28;20199;-72
2023/06/13 02:06:54;;;;;;;8.82;7.13;;;;;;;16.49;94.09;94400.22;5115030;28;20206;-71
2023/06/13 02:09:22;;;;;;;8.80;8.00;;;;;;;16.48;93.96;94393.03;5114841;28;20192;-71
2023/06/13 02:11:52;;;;;;;7.57;6.97;;;;;;;16.47;94.23;94391.47;5114644;28;20215;-71
2023/06/13 02:14:20;;;;;;;8.02;7.43;;;;;;;16.45;94.08;94391.06;5114901;28;20199;-72
2023/06/13 02:16:52;;;;;;;7.18;6.68;;;;;;;16.46;94.05;94399.03;5115628;28;20188;-72
2023/06/13 02:19:20;;;;;;;9.15;6.95;;;;;;;16.46;93.76;94396.25;5115637;28;20317;-72
2023/06/13 02:21:51;;;;;;;7.60;7.00;;;;;;;16.44;93.71;94393.06;5115596;28;20184;-71
2023/06/13 02:24:18;;;;;;;7.95;7.20;;;;;;;16.42;93.91;94391.91;5114395;28;20253;-71
2023/06/13 02:26:46;;;;;;;8.25;7.55;;;;;;;16.42;93.96;94397.47;5114921;28;20247;-71
2023/06/13 02:29:13;;;;;;;8.55;7.75;;;;;;;16.41;93.93;94395.88;5115462;28;20204;-71
2023/06/13 02:31:45;;;;;;;8.50;7.70;;;;;;;16.39;93.59;94399.06;5115416;28;20201;-71
2023/06/13 02:34:15;;;;;;;7.85;7.15;;;;;;;16.38;93.68;94397.50;5114468;28;20195;-71
2023/06/13 02:36:43;;;;;;;8.80;7.93;;;;;;;16.39;93.69;94395.50;5114226;28;20338;-72
2023/06/13 02:39:11;;;;;;;8.80;7.97;;;;;;;16.37;93.94;94402.25;5115245;28;20252;-72
2023/06/13 02:41:39;;;;;;;9.10;7.95;;;;;;;16.37;94.26;94398.69;5115240;28;20183;-72
2023/06/13 02:44:07;;;;;;;8.32;7.63;;;;;;;16.38;94.56;94400.28;5114302;28;20192;-71
2023/06/13 02:46:35;;;;;;;8.05;7.35;;;;;;;16.38;94.34;94408.63;5115200;28;20260;-71
2023/06/13 02:49:03;;;;;;;8.60;7.90;;;;;;;16.39;94.48;94401.84;5113902;28;20638;-72
2023/06/13 02:51:33;;;;;;;8.20;7.50;;;;;;;16.36;94.79;94411.81;5114759;28;20250;-71
2023/06/13 02:54:02;;;;;;;8.23;7.53;;;;;;;16.35;94.13;94406.66;5097057;28;20196;-71
2023/06/13 02:56:30;;;;;;;11.10;9.38;;;;;;;16.30;94.01;94407.88;5113963;28;20202;-71
2023/06/13 02:58:58;;;;;;;12.93;11.82;;;;;;;16.27;94.14;94402.34;5114404;28;20208;-71
2023/06/13 03:01:26;;;;;;;13.55;12.25;;;;;;;16.26;94.00;94406.28;5115097;28;20187;-71
2023/06/13 03:03:54;;;;;;;12.07;11.07;;;;;;;16.25;94.05;94413.84;5113866;28;20191;-71
2023/06/13 03:06:24;;;;;;;12.85;11.38;;;;;;;16.26;93.99;94425.78;5114745;28;20220;-71
2023/06/13 03:08:53;;;;;;;14.45;13.00;;;;;;;16.25;93.62;94413.84;5114856;28;20195;-72
2023/06/13 03:11:23;;;;;;;12.13;11.00;;;;;;;16.26;92.95;94420.19;5113429;28;20216;-71
2023/06/13 03:13:51;;;;;;;12.20;10.60;;;;;;;16.15;92.68;94422.25;5114802;28;20180;-72
2023/06/13 03:16:21;;;;;;;10.90;9.82;;;;;;;16.13;92.92;94423.44;5113599;28;20563;-72
2023/06/13 03:18:52;;;;;;;10.18;9.30;;;;;;;16.12;93.20;94423.84;5114656;28;20196;-72
2023/06/13 03:21:21;;;;;;;10.18;9.18;;;;;;;16.08;93.07;94425.84;5114511;28;20180;-71
2023/06/13 03:23:49;;;;;;;10.25;9.00;;;;;;;16.08;92.74;94428.63;5114312;28;20641;-71
2023/06/13 03:26:22;;;;;;;9.50;8.60;;;;;;;16.07;93.27;94422.28;5114139;28;20246;-71
2023/06/13 03:28:50;;;;;;;9.65;8.65;;;;;;;16.10;92.75;94420.69;5113569;28;20206;-71
2023/06/13 03:31:19;;;;;;;10.40;9.23;;;;;;;16.08;92.95;94420.28;5113107;28;20582;-71
2023/06/13 03:33:47;;;;;;;9.07;8.23;;;;;;;16.08;92.54;94425.84;5114078;28;20196;-71
2023/06/13 03:36:15;;;;;;;10.10;9.20;;;;;;;16.11;92.74;94422.25;5113328;28;20244;-71
2023/06/13 03:38:44;;;;;;;9.60;8.70;;;;;;;16.13;93.05;94419.88;5114338;28;20641;-74
2023/06/13 03:41:12;;;;;;;10.63;9.73;;;;;;;16.13;93.79;94417.88;5114318;28;20184;-74
2023/06/13 03:43:44;;;;;;;10.27;9.13;;;;;;;16.16;93.75;94423.81;5113875;28;20199;-72
2023/06/13 03:46:12;;;;;;;10.60;9.55;;;;;;;16.15;93.74;94428.59;5113090;28;20211;-73
2023/06/13 03:48:40;;;;;;;10.23;9.30;;;;;;;16.09;93.21;94425.47;5113030;28;20245;-72
2023/06/13 03:51:09;;;;;;;9.02;8.23;;;;;;;16.07;93.35;94427.06;5113046;28;20254;-72
2023/06/13 03:53:39;;;;;;;10.63;9.52;;;;;;;16.04;92.24;94425.06;5113322;28;20541;-72
2023/06/13 03:56:08;;;;;;;10.48;9.52;;;;;;;16.04;91.35;94436.19;5114238;28;20569;-72
2023/06/13 03:58:35;;;;;;;10.13;9.20;;;;;;;16.03;91.04;94438.19;5113048;28;20615;-73
2023/06/13 04:01:06;;;;;;;10.77;9.88;;;;;;;16.03;91.05;94435.41;5112964;28;20202;-73
2023/06/13 04:03:35;;;;;;;10.43;9.35;;;;;;;16.05;91.50;94435.81;5113050;28;20196;-75
2023/06/13 04:06:03;;;;;;;10.57;9.68;;;;;;;16.05;91.37;94437.78;5113891;28;20299;-73
2023/06/13 04:08:32;;;;;;;10.80;9.73;;;;;;;16.07;92.44;94438.19;5114158;28;20262;-72
2023/06/13 04:10:59;;;;;;;9.88;9.00;;;;;;;16.08;92.52;94443.31;5112829;28;20200;-72
2023/06/13 04:13:25;;;;;;;11.40;10.40;;;;;;;16.09;92.43;94442.16;5112592;28;20215;-73
2023/06/13 04:15:53;;;;;;;11.25;10.18;;;;;;;16.11;92.84;94441.72;5112997;28;20204;-73
2023/06/13 04:18:24;;;;;;;11.20;10.20;;;;;;;16.12;93.11;94437.75;5113135;28;20210;-72
2023/06/13 04:20:53;;;;;;;11.32;10.23;;;;;;;16.12;93.36;94446.91;5113934;28;20196;-72
2023/06/13 04:23:21;;;;;;;11.90;10.75;;;;;;;16.11;93.01;94445.31;5112898;28;20192;-73
2023/06/13 04:25:52;;;;;;;11.93;10.60;;;;;;;16.13;93.35;94442.13;5114044;28;20235;-75
2023/06/13 04:28:21;;;;;;;14.88;12.10;;;;;;;16.12;91.98;94443.31;5113005;28;20223;-71
2023/06/13 04:30:51;;;;;;;12.77;11.45;;;;;;;16.13;91.05;94454.06;5113869;28;20270;-71
2023/06/13 04:33:21;;;;;;;12.52;11.05;;;;;;;16.13;92.08;94459.63;5112834;28;20296;-71
2023/06/13 04:35:53;;;;;;;15.80;11.30;;;;;;;16.15;91.62;94450.84;5113687;28;20192;-71
2023/06/13 04:38:21;;;;;;;12.38;11.18;;;;;;;16.20;91.66;94456.03;5113552;28;20558;-71
2023/06/13 04:40:50;;;;;;;13.75;12.23;;;;;;;16.25;92.19;94463.16;5112889;28;20195;-71
2023/06/13 04:43:17;;;;;;;15.35;12.38;;;;;;;16.29;92.70;94453.56;5113840;28;20198;-71
2023/06/13 04:45:44;;;;;;;14.48;12.35;;;;;;;16.29;92.56;94459.13;5113497;28;20635;-71
2023/06/13 04:48:13;;;;;;;17.77;12.45;;;;;;;16.30;92.54;94457.97;5112777;28;20200;-71
2023/06/13 04:50:41;;;;;;;13.30;11.57;;;;;;;16.31;91.99;94462.31;5113577;28;20200;-71
2023/06/13 04:53:11;;;;;;;14.95;12.57;;;;;;;16.35;92.02;94463.09;5113713;28;20294;-71
2023/06/13 04:55:40;;;;;;;14.07;12.13;;;;;;;16.36;91.32;94458.31;5114154;28;20619;-72
2023/06/13 04:58:08;;;;;;;13.85;12.00;;;;;;;16.38;89.93;94461.50;5116516;28;20590;-71
2023/06/13 05:00:35;;;;;;;13.43;12.05;;;;;;;16.40;89.21;94472.22;5116805;28;20196;-73
2023/06/13 05:03:03;;;;;;;14.45;12.95;;;;;;;16.47;90.38;94467.41;5117446;28;20180;-72
2023/06/13 05:05:31;;;;;;;16.33;12.80;;;;;;;16.51;91.30;94473.75;5116571;28;20191;-72
2023/06/13 05:08:02;;;;;;;15.85;12.13;;;;;;;16.54;91.41;94478.50;5116328;28;20188;-72
2023/06/13 05:10:38;;;;;;;13.25;11.38;;;;;;;16.54;90.97;94469.38;5117479;28;20188;-73
2023/06/13 05:13:07;;;;;;;13.30;10.75;;;;;;;16.56;89.93;94478.13;5117321;28;20214;-72
2023/06/13 05:15:36;;;;;;;12.77;10.93;;;;;;;16.61;89.51;94472.13;5115611;28;20214;-72
2023/06/13 05:18:07;;;;;;;12.15;11.02;;;;;;;16.68;89.33;94468.50;5117061;28;20197;-72
2023/06/13 05:20:37;;;;;;;10.85;9.85;;;;;;;16.72;88.21;94463.69;5117076;28;20267;-72
2023/06/13 05:23:08;;;;;;;12.10;10.73;;;;;;;16.78;87.85;94470.47;5116062;28;20188;-73
2023/06/13 05:25:38;;;;;;;13.57;11.05;;;;;;;16.83;88.36;94470.81;5115463;28;20231;-73
2023/06/13 05:28:06;;;;;;;11.85;10.60;;;;;;;16.92;89.00;94473.16;5116692;28;20191;-73
2023/06/13 05:30:34;;;;;;;11.80;10.48;;;;;;;16.98;88.54;94468.72;5116038;28;20192;-73
2023/06/13 05:33:06;;;;;;;12.80;11.50;;;;;;;17.03;88.00;94473.88;5116830;28;20220;-73
2023/06/13 05:35:34;;;;;;;12.80;11.52;;;;;;;17.03;86.77;94476.66;5115777;28;20214;-72
2023/06/13 05:38:03;;;;;;;12.93;11.32;;;;;;;17.04;85.96;94469.09;5115454;28;20662;-72
2023/06/13 05:40:31;;;;;;;12.52;10.55;;;;;;;17.05;85.87;94471.47;5115731;28;20211;-74
2023/06/13 05:43:00;;;;;;;12.18;10.88;;;;;;;17.07;86.07;94473.84;5116678;28;20176;-73
2023/06/13 05:45:28;;;;;;;11.43;10.20;;;;;;;17.11;85.67;94469.03;5115552;28;20204;-73
2023/06/13 05:47:56;;;;;;;11.75;10.57;;;;;;;17.13;85.53;94474.97;5115804;28;20196;-72
2023/06/13 05:50:24;;;;;;;13.05;11.75;;;;;;;17.19;85.76;94478.94;5115489;28;20192;-72
2023/06/13 05:52:51;;;;;;;12.07;10.88;;;;;;;17.13;84.04;94474.97;5116313;28;20737;-72
2023/06/13 05:55:21;;;;;;;11.95;10.73;;;;;;;17.13;84.31;94488.13;5115816;28;20198;-73
2023/06/13 05:57:50;;;;;;;10.90;9.90;;;;;;;17.16;84.20;94490.88;5115987;28;20600;-73
2023/06/13 06:00:20;;;;;;;10.65;9.70;;;;;;;17.19;83.60;94483.72;5115354;28;20294;-72
2023/06/13 06:02:52;;;;;;;10.95;9.93;;;;;;;17.21;82.67;94481.28;5116070;28;20253;-71
2023/06/13 06:05:21;;;;;;;11.70;9.45;;;;;;;17.27;83.66;94476.88;5116194;28;20634;-72
2023/06/13 06:07:49;;;;;;;9.80;8.80;;;;;;;17.28;83.41;94479.25;5116020;28;20188;-72
2023/06/13 06:10:19;;;;;;;10.50;9.40;;;;;;;17.32;82.72;94482.03;5115197;28;20191;-72
2023/06/13 06:12:47;;;;;;;10.48;9.25;;;;;;;17.33;83.23;94481.59;5115070;28;20674;-71
2023/06/13 06:15:15;;;;;;;9.48;8.68;;;;;;;17.32;84.58;94474.44;5115668;28;20191;-71
2023/06/13 06:17:46;;;;;;;9.88;9.07;;;;;;;17.35;84.75;94475.59;5112903;28;20206;-71
2023/06/13 06:20:14;;;;;;;9.38;8.57;;;;;;;17.37;83.62;94481.56;5114806;28;20199;-71
2023/06/13 06:22:42;;;;;;;9.90;9.00;;;;;;;17.40;82.43;94486.34;5114757;28;20194;-71
2023/06/13 06:25:12;;;;;;;10.85;9.25;;;;;;;17.44;81.83;94483.50;5114473;28;20242;-71
2023/06/13 06:27:40;;;;;;;10.95;9.85;;;;;;;17.45;81.60;94485.88;5114852;28;20204;-72
2023/06/13 06:30:08;;;;;;;10.68;9.60;;;;;;;17.48;81.44;94487.06;5114722;28;20419;-72
2023/06/13 06:32:36;;;;;;;10.57;9.60;;;;;;;17.49;81.79;94481.06;5115723;28;20200;-71
2023/06/13 06:35:05;;;;;;;10.27;9.02;;;;;;;17.49;82.33;94481.06;5114528;28;20207;-71
2023/06/13 06:37:32;;;;;;;10.90;9.80;;;;;;;17.52;82.38;94482.25;5115387;28;20199;-71
2023/06/13 06:40:00;;;;;;;14.20;10.60;;;;;;;17.55;82.71;94482.22;5114448;28;20202;-73
2023/06/13 06:42:29;;;;;;;10.88;9.75;;;;;;;17.58;83.32;94477.81;5115584;28;20188;-73
2023/06/13 06:44:57;;;;;;;10.82;9.77;;;;;;;17.60;83.11;94474.59;5115420;28;20470;-71
2023/06/13 06:47:25;;;;;;;11.75;9.70;;;;;;;17.64;83.11;94470.56;5114540;28;20188;-72
2023/06/13 06:49:55;;;;;;;10.45;9.32;;;;;;;17.64;81.86;94470.56;5115487;28;20198;-71
2023/06/13 06:52:25;;;;;;;10.43;9.50;;;;;;;17.65;81.18;94474.16;5115159;28;20269;-70
2023/06/13 06:54:53;;;;;;;10.43;9.52;;;;;;;17.69;81.27;94467.34;5114547;28;20218;-72
2023/06/13 06:57:22;;;;;;;10.82;9.60;;;;;;;17.73;81.49;94470.88;5115365;28;20261;-72
2023/06/13 06:59:52;;;;;;;11.38;10.30;;;;;;;17.78;82.08;94469.66;5113917;28;20200;-71
2023/06/13 07:02:21;;;;;;;11.68;10.48;;;;;;;17.83;81.62;94476.78;5115225;28;20256;-71
2023/06/13 07:04:49;;;;;;;12.80;10.65;;;;;;;17.86;81.77;94478.75;5114257;28;20215;-71
2023/06/13 07:07:22;;;;;;;13.18;11.98;;;;;;;17.91;81.72;94475.53;5113657;28;20425;-70
2023/06/13 07:09:55;;;;;;;11.60;10.50;;;;;;;17.96;81.35;94477.84;5114072;28;20237;-70
2023/06/13 07:12:22;;;;;;;12.07;10.35;;;;;;;18.03;81.60;94473.00;5114723;28;20231;-69
2023/06/13 07:14:52;;;;;;;11.23;10.23;;;;;;;18.12;81.94;94466.13;5114453;28;20214;-70
2023/06/13 07:17:20;;;;;;;10.98;9.95;;;;;;;18.20;81.59;94476.00;5113666;28;20615;-69
2023/06/13 07:19:48;;;;;;;11.38;10.38;;;;;;;18.24;80.77;94471.97;5113162;28;20200;-69
2023/06/13 07:22:16;;;;;;;10.27;9.45;;;;;;;18.24;80.01;94477.53;5114453;28;20180;-69
2023/06/13 07:24:43;;;;;;;11.30;10.20;;;;;;;18.23;79.51;94475.97;5114535;28;20188;-69
2023/06/13 07:27:16;;;;;;;11.50;10.35;;;;;;;18.22;78.42;94477.16;5073969;28;20211;-70
2023/06/13 07:29:45;;;;;;;11.10;10.10;;;;;;;18.21;78.10;94472.00;5071678;28;20201;-70
2023/06/13 07:32:13;;;;;;;11.02;10.02;;;;;;;18.22;78.11;94466.00;5073749;28;20184;-69
2023/06/13 07:34:41;;;;;;;11.55;10.45;;;;;;;18.22;79.15;94468.00;5073856;28;20189;-69
2023/06/13 07:37:10;;;;;;;12.43;10.55;;;;;;;18.23;79.49;94464.81;5073003;28;20197;-69
2023/06/13 07:39:36;;;;;;;11.60;10.50;;;;;;;18.26;79.15;94468.75;5072765;28;20254;-69
2023/06/13 07:42:06;;;;;;;10.35;9.55;;;;;;;18.29;79.30;94465.91;5072701;28;20197;-70
2023/06/13 07:44:37;;;;;;;11.65;10.55;;;;;;;18.33;79.73;94465.88;5073988;28;20188;-69
2023/06/13 07:47:07;;;;;;;9.75;8.95;;;;;;;18.35;79.60;94465.47;5073887;28;20204;-69
2023/06/13 07:49:35;;;;;;;10.30;9.30;;;;;;;18.35;78.84;94473.84;5073934;28;20196;-69
2023/06/13 07:52:03;;;;;;;9.85;8.98;;;;;;;18.34;78.69;94467.47;5072645;28;20201;-69
2023/06/13 07:54:31;;;;;;;11.02;9.88;;;;;;;18.37;79.17;94463.03;5072632;28;20254;-70
2023/06/13 07:57:01;;;;;;;11.20;10.20;;;;;;;18.42;79.50;94457.00;5073799;28;20204;-71
2023/06/13 07:59:29;;;;;;;12.85;11.63;;;;;;;18.45;78.90;94462.53;5073632;28;20552;-70
2023/06/13 08:01:58;;;;;;;12.30;11.25;;;;;;;18.52;78.60;94467.25;5073436;28;20211;-69
2023/06/13 08:04:26;;;;;;;12.88;11.63;;;;;;;18.56;77.55;94459.63;5073720;28;20181;-69
2023/06/13 08:06:54;;;;;;;12.52;11.05;;;;;;;18.62;76.73;94459.91;5072320;28;20529;-69
2023/06/13 08:09:23;;;;;;;12.52;11.43;;;;;;;18.67;76.30;94460.25;5073467;28;20231;-69
2023/06/13 08:11:53;;;;;;;13.25;11.90;;;;;;;18.76;76.29;94456.97;5072796;28;20196;-69
2023/06/13 08:14:21;;;;;;;13.40;12.07;;;;;;;18.90;78.42;94453.19;5073333;28;20232;-69
2023/06/13 08:16:49;;;;;;;13.77;12.48;;;;;;;19.07;78.57;94454.13;5072807;28;20201;-69
2023/06/13 08:19:19;;;;;;;13.15;11.95;;;;;;;19.16;77.51;94451.59;5073303;28;20201;-70
2023/06/13 08:21:47;;;;;;;12.43;11.32;;;;;;;19.23;77.94;94451.47;5072594;28;20266;-69
2023/06/13 08:24:17;;;;;;;13.60;12.40;;;;;;;19.27;78.07;94449.41;5072256;28;20197;-70
2023/06/13 08:26:46;;;;;;;12.68;11.57;;;;;;;19.29;76.36;94449.78;5106124;28;20231;-70
2023/06/13 08:29:17;;;;;;;12.45;11.13;;;;;;;19.30;76.92;94447.78;5114251;28;20445;-70
2023/06/13 08:31:45;;;;;;;13.07;11.82;;;;;;;19.30;76.68;94448.56;5118065;28;20179;-75
2023/06/13 08:34:13;;;;;;;12.52;11.35;;;;;;;19.30;75.54;94445.78;5116741;28;20200;-70
2023/06/13 08:36:43;;;;;;;11.85;10.82;;;;;;;19.28;74.58;94450.19;5117966;28;20267;-70
2023/06/13 08:39:13;;;;;;;12.85;11.55;;;;;;;19.21;73.90;94449.13;5117014;28;20208;-70
2023/06/13 08:41:42;;;;;;;12.82;11.68;;;;;;;19.15;73.29;94439.63;5117590;28;20183;-75
2023/06/13 08:44:11;;;;;;;13.27;12.15;;;;;;;19.14;74.96;94440.84;5116548;28;20202;-70
2023/06/13 08:46:39;;;;;;;13.68;12.38;;;;;;;19.14;74.54;94442.84;5117154;28;20226;-70
2023/06/13 08:49:07;;;;;;;12.73;11.48;;;;;;;19.11;74.42;94441.69;5116545;28;20264;-70
2023/06/13 08:51:35;;;;;;;12.63;11.40;;;;;;;19.12;74.57;94436.88;5116909;28;20196;-71
2023/06/13 08:54:06;;;;;;;12.13;11.00;;;;;;;19.11;76.52;94441.69;5116596;28;20215;-71
2023/06/13 08:56:35;;;;;;;13.20;11.93;;;;;;;19.13;75.92;94442.03;5116809;28;20206;-71
2023/06/13 08:59:07;;;;;;;11.50;10.45;;;;;;;19.11;76.50;94446.47;5118050;28;20184;-71
2023/06/13 09:01:37;;;;;;;11.95;10.73;;;;;;;19.13;76.85;94449.63;5117635;28;20187;-71
2023/06/13 09:04:06;;;;;;;12.13;10.93;;;;;;;19.12;75.85;94451.63;5117475;28;20184;-70
2023/06/13 09:06:37;;;;;;;11.73;10.63;;;;;;;19.13;74.96;94449.63;5117679;28;20199;-70
2023/06/13 09:09:09;;;;;;;11.55;10.45;;;;;;;19.12;75.46;94448.84;5117429;28;20184;-71
2023/06/13 09:11:38;;;;;;;12.48;10.95;;;;;;;19.14;76.03;94451.22;5116428;28;20220;-71
2023/06/13 09:14:06;;;;;;;19.42;17.50;;;;;;;19.11;75.15;94449.28;5116808;28;20223;-71
2023/06/13 09:16:34;;;;;;;12.48;10.98;;;;;;;19.06;75.91;94452.53;5117604;28;20186;-70
2023/06/13 09:19:02;;;;;;;8.95;7.70;;;;;;;18.95;76.46;94449.91;5116183;28;20196;-70
2023/06/13 09:21:31;;;;;;;8.10;7.30;;;;;;;18.88;77.20;94450.81;5115970;28;20196;-69
2023/06/13 09:24:02;;;;;;;8.88;7.97;;;;;;;18.81;77.38;94464.88;5117266;28;20264;-69
2023/06/13 09:26:34;;;;;;;8.00;7.20;;;;;;;18.76;78.03;94462.53;5116634;28;20239;-70
2023/06/13 09:29:02;;;;;;;7.40;6.72;;;;;;;18.75;78.31;94458.97;5116473;28;20210;-70
2023/06/13 09:31:30;;;;;;;8.93;7.15;;;;;;;18.74;78.67;94462.97;5098730;28;20523;-70
2023/06/13 09:34:01;;;;;;;7.25;6.55;;;;;;;18.72;78.66;94462.59;5116444;28;20232;-70
2023/06/13 09:36:29;;;;;;;7.30;6.60;;;;;;;18.72;79.36;94457.00;5115614;28;20235;-70
2023/06/13 09:38:57;;;;;;;7.80;7.10;;;;;;;18.72;79.53;94456.22;5116784;28;20187;-70
2023/06/13 09:41:26;;;;;;;7.55;6.85;;;;;;;18.71;79.68;94460.25;5115032;28;20257;-69
2023/06/13 09:43:56;;;;;;;7.35;6.57;;;;;;;18.72;79.24;94454.22;5116075;28;20619;-69
2023/06/13 09:46:24;;;;;;;7.32;6.43;;;;;;;18.75;80.55;94456.19;5116617;28;20184;-72
2023/06/13 09:48:53;;;;;;;6.65;6.00;;;;;;;18.78;80.27;94445.38;5116185;28;20519;-71
2023/06/13 09:51:22;;;;;;;7.57;6.05;;;;;;;18.83;80.08;94447.69;5115559;28;20685;-71
2023/06/13 09:53:50;;;;;;;6.38;5.78;;;;;;;18.86;79.55;94447.66;5115571;28;20216;-70
2023/06/13 09:56:18;;;;;;;8.43;6.63;;;;;;;18.91;80.18;94447.16;5115154;28;20204;-70
2023/06/13 09:58:46;;;;;;;7.93;6.40;;;;;;;18.95;79.88;94447.09;5116457;28;20184;-71
2023/06/13 10:01:17;;;;;;;6.88;6.28;;;;;;;19.01;79.74;94442.63;5115006;28;20674;-72
2023/06/13 10:03:46;;;;;;;7.82;6.47;;;;;;;18.99;79.13;94448.66;5116344;28;20195;-72
2023/06/13 10:06:14;;;;;;;6.85;6.25;;;;;;;18.91;77.83;94447.16;5116259;28;20195;-71
2023/06/13 10:08:42;;;;;;;7.20;6.50;;;;;;;18.87;78.54;94443.63;5115383;28;20200;-72
2023/06/13 10:11:13;;;;;;;7.28;6.68;;;;;;;18.89;78.14;94448.81;5115651;28;20204;-71
2023/06/13 10:13:46;;;;;;;7.53;6.70;;;;;;;18.90;78.26;94440.00;5116157;28;20204;-71
2023/06/13 10:16:19;;;;;;;7.38;6.78;;;;;;;18.92;77.96;94439.59;5114766;28;20527;-73
2023/06/13 10:18:49;;;;;;;7.20;6.50;;;;;;;18.96;78.49;94440.31;5116082;28;20256;-72
2023/06/13 10:21:17;;;;;;;8.10;7.30;;;;;;;19.03;79.13;94440.22;5114644;28;20604;-72
2023/06/13 10:23:48;;;;;;;8.15;7.38;;;;;;;19.00;77.78;94441.84;5115826;28;20226;-73
2023/06/13 10:26:31;;;;;;;7.80;7.10;;;;;;;18.99;78.63;94442.25;5114576;28;20570;-73
2023/06/13 10:29:34;;;;;;;8.63;7.22;;;;;;;19.00;78.82;94441.84;5114978;28;20203;-72
2023/06/13 10:32:16;;;;;;;8.02;7.25;;;;;;;19.02;79.58;94437.81;5084388;28;20215;-74
2023/06/13 10:35:35;;;;;;;8.25;7.55;;;;;;;19.04;79.47;94441.00;5115709;28;20204;-72
2023/06/13 10:38:48;;;;;;;8.85;8.05;;;;;;;19.05;79.90;94437.00;5114237;28;20195;-72
2023/06/13 10:41:35;;;;;;;10.75;8.40;;;;;;;19.06;80.35;94444.94;5058614;28;20211;-71
2023/06/13 10:44:05;;;;;;;8.82;8.00;;;;;;;19.05;80.02;94448.16;5114460;28;20640;-71
2023/06/13 10:46:33;;;;;;;8.43;7.63;;;;;;;19.07;80.08;94442.97;5115214;28;20505;-72
2023/06/13 10:49:07;;;;;;;9.05;8.13;;;;;;;19.07;80.09;94440.16;5115506;28;20184;-71
2023/06/13 10:51:38;;;;;;;12.60;7.82;;;;;;;19.09;81.16;94432.13;5115365;28;20637;-73
2023/06/13 10:54:13;;;;;;;9.75;7.63;;;;;;;19.08;80.66;94427.75;5114129;28;20204;-71
2023/06/13 10:56:42;;;;;;;8.38;7.68;;;;;;;19.08;80.60;94420.16;5114240;28;20198;-72
2023/06/13 10:59:14;;;;;;;8.90;8.20;;;;;;;19.10;80.44;94428.13;5115551;28;20180;-72
2023/06/13 11:01:45;;;;;;;8.73;7.93;;;;;;;19.13;80.64;94430.84;5114903;28;20198;-72
2023/06/13 11:04:19;;;;;;;9.45;8.50;;;;;;;19.15;80.25;94427.66;5113664;28;20196;-70
2023/06/13 11:06:51;;;;;;;9.13;8.32;;;;;;;19.19;80.49;94433.97;5114033;28;20204;-71
2023/06/13 11:09:23;;;;;;;9.35;8.45;;;;;;;19.23;80.43;94435.50;5114937;28;20192;-71
2023/06/13 11:11:53;;;;;;;10.48;8.63;;;;;;;19.29;80.59;94426.63;5115071;28;20184;-70
2023/06/13 11:14:26;;;;;;;9.15;8.25;;;;;;;19.31;79.48;94422.19;5114070;28;20238;-70
2023/06/13 11:16:55;;;;;;;8.93;8.05;;;;;;;19.33;78.84;94416.97;5114715;28;20180;-71
2023/06/13 11:19:27;;;;;;;8.40;7.60;;;;;;;19.41;78.28;94412.03;5113966;28;20192;-71
2023/06/13 11:22:13;;;;;;;9.85;8.85;;;;;;;19.82;82.21;94417.31;5114750;28;20180;-70
2023/06/13 11:24:41;;;;;;;11.40;8.52;;;;;;;20.20;78.98;94417.00;5114937;28;20183;-71
2023/06/13 11:27:11;;;;;;;9.70;8.80;;;;;;;20.51;81.08;94419.56;5114624;28;20246;-71
2023/06/13 11:29:39;;;;;;;9.93;8.93;;;;;;;20.56;78.86;94425.47;5114328;28;20196;-73
2023/06/13 11:32:08;;;;;;;10.80;9.77;;;;;;;20.65;79.12;94424.88;5114317;28;20229;-71
2023/06/13 11:34:40;;;;;;;10.52;9.13;;;;;;;20.70;78.95;94426.34;5114062;28;20286;-73
2023/06/13 11:37:11;;;;;;;9.98;8.98;;;;;;;20.66;77.72;94432.84;5114936;28;20188;-73
2023/06/13 11:39:42;;;;;;;10.65;9.75;;;;;;;20.56;77.63;94433.88;5114071;28;20199;-72